Terminal Aerodrome Forecast
Issued by NWS Wilmington, OH

Current Version | Previous Version | Text Only | Print | Product List | Glossary Off
Versions: 1 2 3 4 5 6 7 8 9 10 11 12 13 14 15

000
FTUS41 KILN 201228 AAB
TAFILN
TAF AMD
KILN 201228Z 2012/2112 17005KT P6SM FEW250
      TEMPO 2012/2013 5SM BR
     FM210000 15004KT P6SM SCT250
     FM210800 00000KT 4SM BR SCT250=

USA.gov is the U.S. government's official web portal to all federal, state and local government web resources and services.